Time;durP1;ratioP1;P1;durP2;ratioP2;P2;SDS_P1;SDS_P2;PMS_P1;PMS_P2;Temp;Humidity;BMP_temperature;BMP_pressure;BME280_temperature;BME280_humidity;BME280_pressure;Samples;Min_cycle;Max_cycle;Signal;HPM_P1;HPM_P2
2021/07/20 00:01:39;;;;;;;23.05;14.38;;;;;;;22.70;91.04;99261.36;1750119;81;20998;-74
2021/07/20 00:04:05;;;;;;;17.40;12.98;;;;;;;22.75;91.25;99266.63;1720869;82;20995;-75
2021/07/20 00:06:32;;;;;;;19.35;13.90;;;;;;;22.82;90.79;99256.47;1720851;82;21003;-73
2021/07/20 00:09:02;;;;;;;13.30;11.35;;;;;;;22.88;90.11;99252.34;1750409;82;21051;-74
2021/07/20 00:11:28;;;;;;;20.82;12.37;;;;;;;22.98;89.62;99247.78;1750110;82;21313;-74
2021/07/20 00:13:55;;;;;;;19.85;14.47;;;;;;;22.97;89.12;99246.98;1720614;82;21022;-76
2021/07/20 00:16:21;;;;;;;18.57;14.15;;;;;;;22.92;89.66;99247.23;1717999;81;21071;-75
2021/07/20 00:18:47;;;;;;;15.55;11.93;;;;;;;22.83;90.08;99247.11;1750192;81;20939;-75
2021/07/20 00:21:13;;;;;;;13.80;10.75;;;;;;;22.87;89.69;99241.17;1721248;82;21047;-75
2021/07/20 00:23:41;;;;;;;18.90;12.13;;;;;;;22.85;88.61;99244.81;1750016;81;22011;-74
2021/07/20 00:26:09;;;;;;;11.33;10.15;;;;;;;22.86;88.01;99240.36;1711949;82;21094;-77
2021/07/20 00:28:36;;;;;;;18.12;12.90;;;;;;;22.91;88.23;99233.85;1680527;84;21492;-75
2021/07/20 00:31:03;;;;;;;17.30;13.03;;;;;;;22.86;88.57;99240.36;1716538;82;21114;-76
2021/07/20 00:33:29;;;;;;;25.25;13.03;;;;;;;22.81;89.78;99245.27;1748622;80;21039;-75
2021/07/20 00:35:56;;;;;;;18.05;10.90;;;;;;;22.71;89.44;99247.89;1711108;81;21191;-75
2021/07/20 00:38:25;;;;;;;14.68;9.13;;;;;;;22.56;89.58;99242.46;1758466;80;21536;-75
2021/07/20 00:40:51;;;;;;;14.43;9.20;;;;;;;22.55;88.34;99238.68;1755690;80;21511;-74
2021/07/20 00:43:17;;;;;;;11.43;9.63;;;;;;;22.49;87.45;99236.72;1749683;82;21541;-74
2021/07/20 00:45:45;;;;;;;16.05;10.13;;;;;;;22.42;87.36;99239.80;1746311;81;21043;-76
2021/07/20 00:48:12;;;;;;;16.02;10.28;;;;;;;22.37;87.42;99238.65;1744647;81;21059;-76
2021/07/20 00:50:43;;;;;;;12.10;10.82;;;;;;;22.30;87.58;99237.05;1746171;82;20974;-76
2021/07/20 00:53:12;;;;;;;17.52;12.63;;;;;;;22.16;88.39;99231.84;1746715;81;20994;-76
2021/07/20 00:55:40;;;;;;;13.58;12.05;;;;;;;21.82;90.89;99238.44;1754324;81;21054;-78
2021/07/20 00:58:08;;;;;;;13.70;12.25;;;;;;;21.61;92.66;99231.59;1755754;81;21046;-79
2021/07/20 01:00:35;;;;;;;15.40;12.45;;;;;;;21.49;93.87;99239.70;1730389;81;21167;-77
2021/07/20 01:03:05;;;;;;;20.27;14.47;;;;;;;21.31;94.65;99239.59;1752842;81;21007;-77
2021/07/20 01:05:33;;;;;;;19.73;14.00;;;;;;;21.10;96.50;99240.88;1730207;81;21006;-76
2021/07/20 01:08:05;;;;;;;19.00;14.45;;;;;;;20.97;100.00;99247.95;1726948;81;21054;-78
2021/07/20 01:10:33;;;;;;;21.10;17.27;;;;;;;21.09;100.00;99243.97;1743721;81;20934;-78
2021/07/20 01:13:00;;;;;;;25.85;16.73;;;;;;;21.48;100.00;99242.80;1750118;81;21117;-77
2021/07/20 01:15:27;;;;;;;21.52;16.97;;;;;;;21.76;100.00;99239.77;1699680;83;21042;-79
2021/07/20 01:17:56;;;;;;;23.45;15.78;;;;;;;21.93;100.00;99233.32;1700079;83;20926;-78
2021/07/20 01:20:27;;;;;;;21.80;14.43;;;;;;;21.97;100.00;99235.08;1735987;80;21050;-76
2021/07/20 01:23:07;;;;;;;13.72;12.30;;;;;;;21.83;94.44;99237.27;1746085;81;21555;-76
2021/07/20 01:25:38;;;;;;;20.48;13.00;;;;;;;21.65;95.00;99237.19;1755529;81;21138;-77
2021/07/20 01:28:07;;;;;;;21.90;13.03;;;;;;;21.48;94.25;99235.95;1738939;81;21516;-77
2021/07/20 01:30:35;;;;;;;23.90;12.53;;;;;;;21.27;95.70;99242.20;1676136;83;21098;-78
2021/07/20 01:33:02;;;;;;;20.15;17.32;;;;;;;21.15;96.58;99244.83;1724274;83;21562;-75
2021/07/20 01:35:30;;;;;;;17.07;13.70;;;;;;;21.11;96.07;99240.33;1699492;83;21075;-77
2021/07/20 01:37:57;;;;;;;22.80;15.65;;;;;;;21.19;100.00;99236.79;1699696;83;21053;-78
2021/07/20 01:40:26;;;;;;;17.87;14.10;;;;;;;21.28;100.00;99239.70;1724193;83;21018;-78
2021/07/20 01:42:52;;;;;;;15.78;11.80;;;;;;;21.40;100.00;99244.45;1722581;81;21054;-77
2021/07/20 01:45:20;;;;;;;14.07;12.10;;;;;;;21.43;97.85;99242.43;1751161;81;21006;-79
2021/07/20 01:47:48;;;;;;;21.37;13.00;;;;;;;21.33;97.63;99243.38;1756077;81;20986;-80
2021/07/20 01:50:17;;;;;;;16.45;11.08;;;;;;;21.33;96.41;99244.19;1755989;81;21133;-77
2021/07/20 01:52:46;;;;;;;15.88;12.85;;;;;;;21.37;96.56;99247.86;1755587;81;20978;-77
2021/07/20 01:55:14;;;;;;;19.12;14.05;;;;;;;21.31;99.33;99254.08;1723077;82;21550;-78
2021/07/20 01:57:41;;;;;;;16.80;15.03;;;;;;;21.56;100.00;99255.05;1750142;81;20991;-78
2021/07/20 02:00:18;;;;;;;27.00;16.02;;;;;;;21.69;99.61;99251.23;1714054;82;21007;-77
2021/07/20 02:02:56;;;;;;;17.70;13.88;;;;;;;21.80;98.66;99248.10;1694124;83;21067;-76
2021/07/20 02:10:43;;;;;;;16.52;13.53;;;;;;;21.74;98.78;99230.51;1711795;82;20978;-78
2021/07/20 02:13:15;;;;;;;20.30;13.30;;;;;;;21.71;99.40;99239.41;1748806;82;21008;-78
2021/07/20 02:16:01;;;;;;;14.03;12.25;;;;;;;21.71;99.41;99242.70;1750416;82;21608;-80
2021/07/20 02:18:30;;;;;;;15.00;13.38;;;;;;;21.75;97.89;99244.44;1719589;82;21026;-76
2021/07/20 02:21:01;;;;;;;19.27;14.43;;;;;;;21.81;97.65;99249.14;1720040;82;21054;-78
2021/07/20 02:23:32;;;;;;;16.90;14.55;;;;;;;21.73;98.78;99241.78;1717899;82;21302;-77
2021/07/20 02:25:58;;;;;;;17.87;14.70;;;;;;;21.54;100.00;99245.55;1738193;82;21054;-77
2021/07/20 02:28:26;;;;;;;18.05;15.00;;;;;;;21.38;100.00;99251.39;1745683;82;21516;-75
2021/07/20 02:30:53;;;;;;;19.70;15.45;;;;;;;21.27;100.00;99253.70;1686227;83;21051;-76
2021/07/20 02:33:20;;;;;;;15.93;14.25;;;;;;;21.18;100.00;99247.48;1709890;83;21023;-76
2021/07/20 02:35:47;;;;;;;14.13;12.73;;;;;;;21.14;100.00;99246.55;1702512;82;21051;-76
2021/07/20 02:38:20;;;;;;;16.48;12.55;;;;;;;21.18;100.00;99255.13;1750023;82;21054;-77
2021/07/20 02:40:47;;;;;;;15.25;13.08;;;;;;;21.27;100.00;99258.61;1741895;82;21535;-77
2021/07/20 02:43:14;;;;;;;22.65;13.68;;;;;;;21.36;100.00;99259.12;1680649;84;20987;-75
2021/07/20 02:45:41;;;;;;;14.55;12.80;;;;;;;21.36;100.00;99246.80;1737235;82;20986;-77
2021/07/20 02:48:11;;;;;;;14.70;13.15;;;;;;;21.30;100.00;99248.93;1741699;82;37761;-77
2021/07/20 02:50:38;;;;;;;16.23;12.00;;;;;;;21.35;100.00;99245.20;1713585;82;21153;-76
2021/07/20 02:53:21;;;;;;;15.85;14.25;;;;;;;21.38;100.00;99242.62;1712324;83;21050;-78
2021/07/20 02:55:55;;;;;;;14.00;12.45;;;;;;;21.46;100.00;99246.42;1722515;81;21263;-78
2021/07/20 02:58:22;;;;;;;13.98;12.50;;;;;;;21.55;100.00;99247.16;1715294;81;21066;-80
2021/07/20 03:00:48;;;;;;;15.85;12.90;;;;;;;21.61;100.00;99251.31;1729108;82;21050;-79
2021/07/20 03:03:15;;;;;;;13.50;12.18;;;;;;;21.70;100.00;99257.52;1707700;81;21071;-80
2021/07/20 03:05:47;;;;;;;16.42;14.63;;;;;;;21.71;100.00;99242.70;1752429;81;21072;-78
2021/07/20 03:08:15;;;;;;;18.45;14.95;;;;;;;21.56;100.00;99251.50;1755718;81;21034;-79
2021/07/20 03:10:44;;;;;;;23.70;15.85;;;;;;;21.42;100.00;99246.30;1757043;81;21046;-78
2021/07/20 03:13:10;;;;;;;14.60;13.20;;;;;;;21.35;100.00;99251.48;1709234;81;21052;-80
2021/07/20 03:15:45;;;;;;;15.45;12.37;;;;;;;21.39;100.00;99257.11;1698620;83;20970;-76
2021/07/20 03:18:12;;;;;;;15.35;12.70;;;;;;;21.44;100.00;99252.81;1704178;84;21040;-79
2021/07/20 03:20:39;;;;;;;14.85;13.22;;;;;;;21.49;100.00;99253.95;1681808;83;20984;-80
2021/07/20 03:23:08;;;;;;;19.27;13.98;;;;;;;21.54;100.00;99258.67;1707589;83;21083;-76
2021/07/20 03:25:34;;;;;;;17.55;13.55;;;;;;;21.62;100.00;99261.13;1708463;82;21039;-75
2021/07/20 03:28:01;;;;;;;20.68;14.58;;;;;;;21.69;100.00;99266.30;1692330;83;21146;-75
2021/07/20 03:30:32;;;;;;;14.90;13.15;;;;;;;21.78;100.00;99265.41;1683477;84;21305;-77
2021/07/20 03:33:03;;;;;;;20.97;14.40;;;;;;;21.89;100.00;99270.17;1683693;83;20976;-76
2021/07/20 03:35:41;;;;;;;16.23;14.58;;;;;;;22.01;100.00;99262.63;1694344;83;20968;-79
2021/07/20 03:38:08;;;;;;;16.07;12.88;;;;;;;22.11;100.00;99261.61;1722558;83;21052;-77
2021/07/20 03:40:36;;;;;;;14.98;10.98;;;;;;;22.16;100.00;99257.86;1722046;82;21031;-76
2021/07/20 03:43:04;;;;;;;15.00;12.45;;;;;;;22.24;100.00;99257.56;1720816;82;21074;-74
2021/07/20 03:45:32;;;;;;;15.23;13.43;;;;;;;22.18;100.00;99258.34;1710263;83;21557;-78
2021/07/20 03:47:59;;;;;;;14.83;12.90;;;;;;;22.06;100.00;99264.56;1721747;83;21024;-77
2021/07/20 03:50:33;;;;;;;17.45;13.32;;;;;;;22.04;100.00;99263.31;1720306;83;20963;-78
2021/07/20 03:53:00;;;;;;;15.43;13.08;;;;;;;22.07;100.00;99259.32;1711364;83;21011;-75
2021/07/20 03:55:27;;;;;;;16.17;12.43;;;;;;;22.20;100.00;99264.30;1687939;83;22128;-79
2021/07/20 03:57:55;;;;;;;14.30;12.82;;;;;;;22.27;100.00;99274.69;1694498;83;21547;-78
2021/07/20 04:00:22;;;;;;;15.80;14.15;;;;;;;22.39;100.00;99271.44;1708206;81;21086;-78
2021/07/20 04:02:58;;;;;;;16.15;14.58;;;;;;;22.56;100.00;99267.13;1691772;84;21035;-78
2021/07/20 04:05:20;;;;;;;13.85;12.45;;;;;;;22.70;100.00;99266.84;1695301;83;21028;-79
2021/07/20 04:07:48;;;;;;;18.25;13.80;;;;;;;22.78;99.52;99262.42;1722475;82;22865;-77
2021/07/20 04:10:15;;;;;;;15.03;12.73;;;;;;;22.76;98.80;99268.80;1722443;83;20968;-77
2021/07/20 04:13:03;;;;;;;14.73;13.32;;;;;;;22.82;98.66;99270.19;1646054;86;21093;-78
2021/07/20 04:15:35;;;;;;;13.38;11.63;;;;;;;22.92;98.31;99269.17;1637176;87;21206;-80
2021/07/20 04:18:03;;;;;;;14.33;12.82;;;;;;;23.02;97.58;99267.33;1649891;84;21109;-78
2021/07/20 04:20:31;;;;;;;18.57;13.25;;;;;;;23.09;96.85;99263.22;1693961;83;21093;-79
2021/07/20 04:22:57;;;;;;;15.88;13.03;;;;;;;23.12;96.12;99268.04;1668042;84;21079;-78
2021/07/20 04:25:24;;;;;;;13.35;11.93;;;;;;;23.16;95.96;99281.30;1686449;83;21072;-78
2021/07/20 04:27:52;;;;;;;15.55;11.75;;;;;;;23.25;95.81;99285.52;1715994;83;21076;-78
2021/07/20 04:30:18;;;;;;;13.18;11.88;;;;;;;23.32;94.81;99288.48;1722306;83;21016;-78
2021/07/20 04:32:47;;;;;;;15.35;10.80;;;;;;;23.39;94.26;99283.23;1722670;83;21356;-77
2021/07/20 04:35:16;;;;;;;15.05;11.05;;;;;;;23.48;92.86;99280.38;1696069;83;21580;-77
2021/07/20 04:37:44;;;;;;;13.13;11.90;;;;;;;23.38;91.73;99283.56;1721009;83;21537;-78
2021/07/20 04:40:11;;;;;;;13.55;10.38;;;;;;;23.36;91.75;99282.53;1670196;84;21516;-76
2021/07/20 04:42:40;;;;;;;13.38;9.88;;;;;;;23.37;91.75;99280.58;1668147;84;21064;-78
2021/07/20 04:45:08;;;;;;;12.40;10.60;;;;;;;23.41;91.82;99285.03;1699543;83;21795;-79
2021/07/20 04:47:40;;;;;;;17.98;12.25;;;;;;;23.48;91.43;99282.33;1718879;83;20936;-78
2021/07/20 04:50:11;;;;;;;13.45;12.05;;;;;;;23.33;91.89;99285.17;1659610;85;20992;-76
2021/07/20 04:52:39;;;;;;;21.37;12.13;;;;;;;23.12;93.17;99292.73;1683300;85;21069;-78
2021/07/20 04:55:08;;;;;;;14.58;11.45;;;;;;;23.06;92.95;99298.20;1636739;85;21578;-76
2021/07/20 04:57:36;;;;;;;14.65;11.10;;;;;;;23.06;92.81;99298.20;1708426;83;20979;-76
2021/07/20 05:00:08;;;;;;;11.68;10.58;;;;;;;23.11;92.78;99300.73;1692988;83;21007;-79
2021/07/20 05:02:38;;;;;;;10.98;9.88;;;;;;;23.16;92.83;99286.78;1694975;83;21024;-77
2021/07/20 05:05:07;;;;;;;18.95;11.88;;;;;;;23.19;92.68;99285.52;1679896;83;21043;-80
2021/07/20 05:07:33;;;;;;;14.23;10.32;;;;;;;23.25;92.98;99284.16;1678348;84;21058;-77
2021/07/20 05:09:59;;;;;;;11.83;10.60;;;;;;;23.35;92.47;99285.06;1701100;84;21476;-76
2021/07/20 05:12:27;;;;;;;14.45;10.15;;;;;;;23.44;91.95;99284.40;1682784;84;20953;-76
2021/07/20 05:14:56;;;;;;;10.65;9.60;;;;;;;23.58;91.36;99286.78;1657546;85;21049;-79
2021/07/20 05:17:22;;;;;;;11.45;9.63;;;;;;;23.70;90.24;99294.98;1680526;85;21048;-78
2021/07/20 05:19:49;;;;;;;11.30;10.20;;;;;;;23.74;89.08;99295.88;1649832;86;20999;-79
2021/07/20 05:22:26;;;;;;;13.70;10.18;;;;;;;23.79;88.44;99300.33;1667180;86;21208;-78
2021/07/20 05:24:53;;;;;;;10.68;9.48;;;;;;;23.83;88.20;99307.56;1693788;84;20991;-77
2021/07/20 05:27:22;;;;;;;13.93;11.40;;;;;;;23.86;87.30;99312.92;1656177;84;21027;-79
2021/07/20 05:29:48;;;;;;;17.85;11.83;;;;;;;23.83;86.88;99311.68;1686874;84;21004;-78
2021/07/20 05:32:18;;;;;;;15.93;12.47;;;;;;;23.92;87.05;99312.91;1684823;84;21015;-76
2021/07/20 05:34:48;;;;;;;17.23;11.60;;;;;;;24.01;85.68;99312.77;1665775;84;21075;-75
2021/07/20 05:37:20;;;;;;;15.48;12.13;;;;;;;23.93;84.17;99311.77;1694732;84;21023;-75
2021/07/20 05:39:49;;;;;;;11.05;9.95;;;;;;;23.85;84.75;99308.00;1668107;86;21015;-76
2021/07/20 05:42:18;;;;;;;12.82;10.78;;;;;;;23.89;84.61;99306.15;1690355;84;21063;-77
2021/07/20 05:44:47;;;;;;;13.83;11.68;;;;;;;23.96;84.40;99313.81;1657053;84;21518;-76
2021/07/20 05:47:17;;;;;;;17.00;10.80;;;;;;;24.00;83.88;99306.47;1677481;84;21852;-76
2021/07/20 05:49:44;;;;;;;19.17;11.45;;;;;;;24.08;83.80;99302.77;1696718;84;21059;-76
2021/07/20 05:52:14;;;;;;;13.25;10.72;;;;;;;24.18;83.55;99296.02;1692923;84;20924;-77
2021/07/20 05:54:46;;;;;;;13.72;10.53;;;;;;;24.24;81.75;99294.05;1692065;83;21004;-77
2021/07/20 05:57:15;;;;;;;14.50;11.45;;;;;;;24.31;79.78;99299.77;1683496;84;20992;-76
2021/07/20 05:59:44;;;;;;;15.48;9.70;;;;;;;24.38;77.82;99307.95;1665356;86;21004;-77
2021/07/20 06:02:13;;;;;;;9.70;8.68;;;;;;;24.42;76.89;99308.28;1665753;86;21565;-76
2021/07/20 06:04:39;;;;;;;18.77;12.60;;;;;;;24.48;75.19;99312.38;1667836;84;21104;-78
2021/07/20 06:07:06;;;;;;;17.90;11.45;;;;;;;24.49;74.13;99310.44;1666551;84;21047;-77
2021/07/20 06:09:32;;;;;;;16.73;11.53;;;;;;;24.54;73.20;99308.80;1694293;84;21019;-79
2021/07/20 06:11:59;;;;;;;19.55;10.18;;;;;;;24.56;71.66;99303.16;1668406;84;21037;-76
2021/07/20 06:14:25;;;;;;;24.55;9.88;;;;;;;24.53;69.25;99303.88;1694297;84;20974;-78
2021/07/20 06:16:52;;;;;;;25.05;10.53;;;;;;;24.51;69.52;99301.27;1666846;84;20956;-79
2021/07/20 06:19:18;;;;;;;12.68;9.90;;;;;;;24.44;70.18;99301.06;1680626;85;21496;-79
2021/07/20 06:21:44;;;;;;;13.62;8.83;;;;;;;24.47;70.52;99305.84;1639480;85;21584;-77
2021/07/20 06:24:13;;;;;;;12.85;9.85;;;;;;;24.47;70.68;99301.72;1677147;84;22157;-78
2021/07/20 06:26:40;;;;;;;10.75;7.87;;;;;;;24.50;70.44;99303.22;1698562;84;21066;-76
2021/07/20 06:29:09;;;;;;;12.90;9.28;;;;;;;24.56;70.11;99300.41;1677320;84;21000;-79
2021/07/20 06:31:42;;;;;;;10.15;8.68;;;;;;;24.66;70.35;99304.59;1691982;84;21580;-79
2021/07/20 06:34:08;;;;;;;;;;;;;;;24.78;70.22;99302.36;1697975;84;21156;-78
2021/07/20 06:36:35;;;;;;;10.72;8.30;;;;;;;24.86;69.31;99299.44;1717711;83;21227;-79
2021/07/20 06:39:06;;;;;;;9.75;8.48;;;;;;;24.92;68.37;99291.18;1717295;83;21027;-80
2021/07/20 06:41:36;;;;;;;16.52;8.70;;;;;;;24.96;68.06;99293.44;1699541;84;21500;-80
2021/07/20 06:44:04;;;;;;;9.13;7.40;;;;;;;25.01;67.62;99290.42;1657584;85;21065;-80
2021/07/20 06:46:32;;;;;;;11.83;9.08;;;;;;;25.06;66.83;99283.85;1688748;85;21063;-81
2021/07/20 06:48:58;;;;;;;10.72;8.65;;;;;;;25.08;66.52;99280.95;1688477;84;21679;-79
2021/07/20 06:51:24;;;;;;;15.05;10.63;;;;;;;25.14;66.45;99288.37;1669666;85;21512;-81
2021/07/20 06:53:53;;;;;;;16.67;11.35;;;;;;;25.13;66.81;99279.91;1661420;85;21069;-81
2021/07/20 06:56:24;;;;;;;18.45;11.43;;;;;;;25.17;68.24;99281.59;1673162;84;21530;-78
2021/07/20 06:58:50;;;;;;;15.60;9.30;;;;;;;25.16;68.49;99275.86;1690460;84;20955;-78
2021/07/20 07:01:16;;;;;;;9.50;7.60;;;;;;;25.14;67.44;99280.91;1690615;84;21649;-81
2021/07/20 07:03:54;;;;;;;14.63;8.23;;;;;;;25.10;64.67;99273.73;1715655;82;21544;-81
2021/07/20 07:06:20;;;;;;;14.23;8.18;;;;;;;25.13;65.60;99290.31;1749397;82;21036;-84
2021/07/20 07:08:47;;;;;;;11.30;8.85;;;;;;;25.20;65.47;99289.70;1750135;81;21113;-83
2021/07/20 07:11:15;;;;;;;13.58;9.03;;;;;;;25.24;65.55;99291.16;1749873;81;21562;-85
2021/07/20 07:13:41;;;;;;;14.43;8.83;;;;;;;25.31;65.86;99289.97;1727540;82;22108;-80
2021/07/20 07:16:08;;;;;;;13.58;8.20;;;;;;;25.43;65.83;99295.34;1700198;84;20928;-79
2021/07/20 07:18:34;;;;;;;12.03;9.95;;;;;;;25.53;65.35;99292.84;1700386;84;21579;-80
2021/07/20 07:21:01;;;;;;;12.20;10.18;;;;;;;25.55;64.26;99293.33;1704050;83;21094;-79
2021/07/20 07:23:28;;;;;;;19.75;9.80;;;;;;;25.51;63.41;99292.42;1695713;82;21023;-79
2021/07/20 07:25:57;;;;;;;13.20;8.93;;;;;;;25.57;64.08;99300.64;1745708;81;21092;-79
2021/07/20 07:28:23;;;;;;;12.75;8.60;;;;;;;25.58;63.81;99298.11;1721076;82;21002;-77
2021/07/20 07:30:50;;;;;;;14.65;9.90;;;;;;;25.55;64.15;99298.84;1750157;82;21599;-80
2021/07/20 07:33:18;;;;;;;17.50;8.48;;;;;;;25.58;63.98;99306.38;1720019;82;20968;-80
2021/07/20 07:35:47;;;;;;;10.45;8.63;;;;;;;25.63;63.95;99310.00;1722192;82;21055;-79
2021/07/20 07:38:16;;;;;;;17.60;9.28;;;;;;;25.69;63.98;99308.57;1719074;83;21034;-79
2021/07/20 07:40:43;;;;;;;17.57;9.75;;;;;;;25.75;64.03;99303.81;1718776;83;21070;-80
2021/07/20 07:43:09;;;;;;;11.28;9.98;;;;;;;25.88;63.89;99300.34;1700806;82;21197;-79
2021/07/20 07:45:36;;;;;;;13.32;10.20;;;;;;;25.93;63.07;99303.61;1698826;83;20987;-77
2021/07/20 07:48:04;;;;;;;18.25;9.85;;;;;;;25.95;63.09;99299.09;1716384;82;21067;-78
2021/07/20 07:50:30;;;;;;;19.85;10.48;;;;;;;26.03;63.16;99296.72;1750098;82;21811;-79
2021/07/20 07:52:56;;;;;;;11.97;10.45;;;;;;;26.14;62.35;99292.21;1720408;82;20948;-81
2021/07/20 07:55:24;;;;;;;11.75;9.43;;;;;;;26.18;62.51;99296.44;1729047;82;21031;-82
2021/07/20 07:57:51;;;;;;;21.70;11.10;;;;;;;26.24;62.67;99290.86;1736962;82;21504;-78
2021/07/20 08:00:18;;;;;;;15.98;10.00;;;;;;;26.35;62.35;99287.73;1695521;84;21018;-78
2021/07/20 08:02:51;;;;;;;14.58;10.03;;;;;;;26.46;61.52;99285.99;1660447;86;22079;-80
2021/07/20 08:05:22;;;;;;;18.52;12.33;;;;;;;26.56;61.46;99279.08;1665179;86;20984;-82
2021/07/20 08:07:52;;;;;;;17.27;10.35;;;;;;;26.62;60.32;99283.91;1645888;84;21229;-81
2021/07/20 08:10:19;;;;;;;17.30;10.32;;;;;;;26.59;60.42;99279.14;1647401;86;22211;-80
2021/07/20 08:12:46;;;;;;;15.30;9.85;;;;;;;26.49;60.57;99275.59;1668169;86;21503;-79
2021/07/20 08:15:14;;;;;;;13.22;9.90;;;;;;;26.51;60.12;99277.42;1657137;86;21520;-81
2021/07/20 08:17:41;;;;;;;13.70;8.83;;;;;;;26.57;60.01;99272.41;1690735;84;21011;-83
2021/07/20 08:20:09;;;;;;;12.35;9.50;;;;;;;26.61;60.24;99275.44;1641208;87;21105;-81
2021/07/20 08:22:36;;;;;;;15.35;8.88;;;;;;;26.63;59.48;99281.95;1669490;84;20997;-80
2021/07/20 08:25:13;;;;;;;11.57;8.28;;;;;;;26.64;59.55;99281.59;1664345;86;21070;-80
2021/07/20 08:27:48;;;;;;;12.43;9.20;;;;;;;26.66;59.52;99282.62;1663371;86;21988;-80
2021/07/20 08:30:15;;;;;;;16.62;9.70;;;;;;;26.62;59.65;99281.76;1664453;85;21519;-76
2021/07/20 08:32:55;;;;;;;14.30;10.32;;;;;;;26.60;59.74;99282.12;1671355;84;21054;-78
2021/07/20 08:35:26;;;;;;;14.05;9.05;;;;;;;26.66;59.53;99280.66;1674311;84;20959;-78
2021/07/20 08:37:54;;;;;;;10.70;8.50;;;;;;;26.74;60.04;99280.19;1664097;84;21007;-79
2021/07/20 08:40:55;;;;;;;14.18;9.58;;;;;;;26.89;59.00;99287.59;1697824;84;21229;-80
2021/07/20 08:43:42;;;;;;;20.15;9.93;;;;;;;27.03;58.69;99285.64;1680232;84;21509;-79
2021/07/20 08:46:39;;;;;;;16.07;9.05;;;;;;;27.14;58.12;99284.67;1682106;84;21087;-79
2021/07/20 08:49:37;;;;;;;15.35;9.73;;;;;;;27.16;58.35;99282.31;1697730;84;21083;-81
2021/07/20 08:52:08;;;;;;;14.20;9.73;;;;;;;27.30;58.17;99290.02;1698138;84;21511;-80
2021/07/20 08:54:54;;;;;;;10.90;8.65;;;;;;;27.37;58.29;99282.44;1662779;83;21096;-79
2021/07/20 08:57:41;;;;;;;9.13;8.08;;;;;;;27.41;58.18;99285.47;1698122;83;20956;-79
2021/07/20 09:00:12;;;;;;;13.65;8.63;;;;;;;27.47;58.19;99280.42;1674374;84;21018;-79
2021/07/20 09:02:53;;;;;;;15.28;9.08;;;;;;;27.50;58.28;99279.70;1691941;84;20975;-80
2021/07/20 09:05:31;;;;;;;17.67;9.68;;;;;;;27.49;57.78;99285.81;1663627;84;21066;-80
2021/07/20 09:08:10;;;;;;;14.15;11.15;;;;;;;27.42;58.18;99278.78;1667667;86;21852;-80
2021/07/20 09:10:44;;;;;;;11.80;9.25;;;;;;;27.40;58.14;99288.02;1652281;84;21015;-78
2021/07/20 09:13:14;;;;;;;11.57;10.38;;;;;;;27.34;58.12;99278.44;1667277;84;21006;-76
2021/07/20 09:15:53;;;;;;;12.90;10.20;;;;;;;27.27;58.26;99275.59;1696761;84;21022;-74
2021/07/20 09:18:25;;;;;;;11.55;9.90;;;;;;;27.26;58.27;99271.23;1690584;83;21057;-77
2021/07/20 09:20:56;;;;;;;11.48;8.50;;;;;;;27.25;58.31;99262.72;1728564;82;21094;-82
2021/07/20 09:23:35;;;;;;;16.90;10.35;;;;;;;27.27;58.28;99264.54;1718446;82;21010;-83
2021/07/20 09:26:12;;;;;;;13.78;10.20;;;;;;;27.34;58.04;99257.73;1718456;82;20930;-82
2021/07/20 09:28:51;;;;;;;12.53;10.38;;;;;;;27.45;58.16;99250.98;1719158;83;21011;-82
2021/07/20 09:31:28;;;;;;;10.72;8.78;;;;;;;27.56;58.11;99251.39;1674105;82;20993;-79
2021/07/20 09:34:28;;;;;;;15.63;8.68;;;;;;;27.72;57.40;99251.22;1738637;82;21830;-78
2021/07/20 09:37:11;;;;;;;12.82;9.73;;;;;;;27.84;57.40;99250.97;1623736;87;20956;-76
2021/07/20 09:40:19;;;;;;;12.70;8.60;;;;;;;27.98;56.86;99255.88;1725144;82;20955;-76
2021/07/20 09:43:03;;;;;;;12.45;8.98;;;;;;;28.02;56.90;99252.55;1739954;82;21964;-77
2021/07/20 09:45:45;;;;;;;16.85;9.65;;;;;;;28.01;56.32;99257.91;1748055;81;20999;-78
2021/07/20 09:48:38;;;;;;;11.03;8.53;;;;;;;27.96;56.26;99253.47;1682983;83;21182;-75
2021/07/20 09:51:40;;;;;;;12.50;8.78;;;;;;;27.92;56.45;99248.48;1750640;82;20974;-81
2021/07/20 09:54:20;;;;;;;9.48;7.95;;;;;;;27.92;56.95;99246.31;1750342;82;21039;-79
2021/07/20 09:57:10;;;;;;;12.13;9.43;;;;;;;27.92;56.28;99248.48;1750503;81;20979;-76
2021/07/20 09:59:55;;;;;;;13.13;9.13;;;;;;;27.92;55.96;99247.69;1743548;81;21047;-77
2021/07/20 10:02:48;;;;;;;10.00;8.45;;;;;;;27.98;55.95;99246.20;1728431;83;21418;-76
2021/07/20 10:05:26;;;;;;;15.58;9.93;;;;;;;28.01;55.63;99250.38;1741356;81;20983;-75
2021/07/20 10:08:03;;;;;;;10.50;8.40;;;;;;;28.06;55.89;99242.33;1758620;81;21546;-77
2021/07/20 10:10:43;;;;;;;9.70;7.80;;;;;;;28.05;55.51;99247.09;1726434;81;21019;-78
2021/07/20 10:13:22;;;;;;;13.38;8.98;;;;;;;28.12;55.85;99238.09;1744383;81;21050;-79
2021/07/20 10:16:25;;;;;;;12.55;8.33;;;;;;;28.32;55.36;99234.56;1747996;82;22854;-85
2021/07/20 10:19:07;;;;;;;8.33;7.53;;;;;;;28.48;54.43;99236.52;1747372;81;20954;-77
2021/07/20 10:21:38;;;;;;;10.30;8.10;;;;;;;28.59;53.78;99240.96;1757811;81;20935;-80
2021/07/20 10:24:11;;;;;;;15.98;8.73;;;;;;;28.62;53.62;99232.50;1758624;81;21089;-74
2021/07/20 10:27:02;;;;;;;10.08;6.55;;;;;;;28.63;53.84;99223.80;1758932;81;21078;-74
2021/07/20 10:29:55;;;;;;;8.05;7.25;;;;;;;28.66;53.38;99222.84;1732679;81;21176;-75
2021/07/20 10:32:30;;;;;;;8.63;7.42;;;;;;;28.65;53.05;99213.73;1728333;81;21074;-74
2021/07/20 10:35:00;;;;;;;9.33;7.53;;;;;;;28.65;53.33;99208.78;1718773;81;21074;-77
2021/07/20 10:37:30;;;;;;;8.78;7.17;;;;;;;28.79;53.13;99211.70;1733240;81;21046;-83
2021/07/20 10:40:06;;;;;;;10.13;7.40;;;;;;;28.83;53.66;99199.48;1732826;81;21016;-76
2021/07/20 10:42:41;;;;;;;21.05;8.18;;;;;;;29.02;53.77;99200.61;1738713;81;21123;-75
2021/07/20 10:45:11;;;;;;;10.53;8.23;;;;;;;29.14;53.06;99209.22;1702241;83;21615;-75
2021/07/20 10:47:52;;;;;;;14.53;8.35;;;;;;;29.06;53.10;99197.09;1710338;81;21085;-82
2021/07/20 10:50:47;;;;;;;15.18;8.13;;;;;;;29.03;52.92;99202.21;1720051;82;21039;-82
2021/07/20 10:53:24;;;;;;;8.95;6.97;;;;;;;29.04;52.36;99195.50;1738673;80;21043;-77
2021/07/20 10:56:33;;;;;;;12.55;7.72;;;;;;;29.08;51.96;99198.87;1719357;81;21364;-79
2021/07/20 10:59:33;;;;;;;14.47;8.53;;;;;;;29.10;51.82;99190.98;1738398;82;21626;-81
2021/07/20 11:02:14;;;;;;;8.50;6.53;;;;;;;29.23;51.49;99204.71;1738128;82;21502;-77
2021/07/20 11:05:05;;;;;;;7.95;6.95;;;;;;;29.39;50.72;99198.32;1720895;82;21097;-76
2021/07/20 11:07:48;;;;;;;13.98;8.48;;;;;;;29.40;50.26;99195.77;1750188;81;20975;-75
2021/07/20 11:10:38;;;;;;;11.65;7.75;;;;;;;29.41;50.84;99195.94;1750383;81;21848;-73
2021/07/20 11:13:07;;;;;;;10.00;7.92;;;;;;;29.48;50.23;99191.03;1726577;82;21074;-73
2021/07/20 11:15:35;;;;;;;12.47;8.13;;;;;;;29.50;50.05;99189.45;1737765;82;21095;-73
2021/07/20 11:18:06;;;;;;;13.20;7.67;;;;;;;29.54;50.49;99187.52;1745359;81;21087;-76
2021/07/20 11:20:32;;;;;;;20.68;9.58;;;;;;;29.60;50.25;99180.39;1739672;80;21016;-77
2021/07/20 11:23:00;;;;;;;13.43;7.75;;;;;;;29.60;50.25;99183.16;1729544;82;21144;-74
2021/07/20 11:25:26;;;;;;;8.63;7.00;;;;;;;29.59;49.83;99176.65;1727999;81;21104;-76
2021/07/20 11:27:53;;;;;;;17.45;7.70;;;;;;;29.59;49.68;99180.22;1693331;83;21100;-77
2021/07/20 11:30:20;;;;;;;8.05;7.33;;;;;;;29.46;49.33;99176.17;1690359;83;21035;-75
2021/07/20 11:33:13;;;;;;;8.35;7.53;;;;;;;29.23;49.87;99172.27;1743155;82;21078;-76
2021/07/20 11:35:40;;;;;;;8.63;7.55;;;;;;;29.11;50.05;99169.83;1701870;82;22344;-75
2021/07/20 11:38:12;;;;;;;11.75;6.70;;;;;;;29.09;50.48;99168.62;1717585;82;21588;-74
2021/07/20 11:40:47;;;;;;;11.30;8.20;;;;;;;29.10;50.66;99178.52;1745722;82;20912;-73
2021/07/20 11:43:18;;;;;;;10.80;7.08;;;;;;;29.14;50.86;99168.25;1735881;82;21134;-75
2021/07/20 11:46:05;;;;;;;13.70;8.15;;;;;;;29.19;50.67;99163.73;1750174;81;20967;-77